sensor_id;sensor_type;location;lat;lon;timestamp;P1;durP1;ratioP1;P2;durP2;ratioP2
24216;SDS011;12356;49.386;8.688;2023-05-14T00:01:00;4.28;;;3.03;;
24216;SDS011;12356;49.386;8.688;2023-05-14T00:03:31;4.45;;;2.80;;
24216;SDS011;12356;49.386;8.688;2023-05-14T00:06:01;3.97;;;3.10;;
24216;SDS011;12356;49.386;8.688;2023-05-14T00:08:32;3.33;;;3.03;;
24216;SDS011;12356;49.386;8.688;2023-05-14T00:11:02;3.28;;;2.97;;
24216;SDS011;12356;49.386;8.688;2023-05-14T00:13:33;4.75;;;3.08;;
24216;SDS011;12356;49.386;8.688;2023-05-14T00:16:04;5.40;;;2.88;;
24216;SDS011;12356;49.386;8.688;2023-05-14T00:18:35;4.90;;;3.30;;
24216;SDS011;12356;49.386;8.688;2023-05-14T00:21:05;4.15;;;2.95;;
24216;SDS011;12356;49.386;8.688;2023-05-14T00:23:36;3.97;;;3.15;;
24216;SDS011;12356;49.386;8.688;2023-05-14T00:26:07;3.58;;;3.10;;
24216;SDS011;12356;49.386;8.688;2023-05-14T00:28:37;3.50;;;3.20;;
24216;SDS011;12356;49.386;8.688;2023-05-14T00:31:08;4.47;;;3.30;;
24216;SDS011;12356;49.386;8.688;2023-05-14T00:33:38;3.50;;;3.20;;
24216;SDS011;12356;49.386;8.688;2023-05-14T00:36:09;3.92;;;3.05;;
24216;SDS011;12356;49.386;8.688;2023-05-14T00:38:39;5.10;;;2.97;;
24216;SDS011;12356;49.386;8.688;2023-05-14T00:41:10;4.47;;;2.95;;
24216;SDS011;12356;49.386;8.688;2023-05-14T00:43:41;3.72;;;3.20;;
24216;SDS011;12356;49.386;8.688;2023-05-14T00:46:11;4.45;;;3.00;;
24216;SDS011;12356;49.386;8.688;2023-05-14T00:48:43;3.25;;;2.95;;
24216;SDS011;12356;49.386;8.688;2023-05-14T00:51:14;4.07;;;3.10;;
24216;SDS011;12356;49.386;8.688;2023-05-14T00:53:46;4.75;;;3.00;;
24216;SDS011;12356;49.386;8.688;2023-05-14T00:56:17;5.50;;;3.58;;
24216;SDS011;12356;49.386;8.688;2023-05-14T00:58:48;4.22;;;3.30;;
24216;SDS011;12356;49.386;8.688;2023-05-14T01:01:18;3.58;;;3.08;;
24216;SDS011;12356;49.386;8.688;2023-05-14T01:03:50;4.38;;;2.90;;
24216;SDS011;12356;49.386;8.688;2023-05-14T01:06:40;3.30;;;3.00;;
24216;SDS011;12356;49.386;8.688;2023-05-14T01:15:16;4.50;;;3.70;;
24216;SDS011;12356;49.386;8.688;2023-05-14T01:17:54;4.78;;;4.07;;
24216;SDS011;12356;49.386;8.688;2023-05-14T01:20:28;6.05;;;3.80;;
24216;SDS011;12356;49.386;8.688;2023-05-14T01:22:58;4.57;;;3.70;;
24216;SDS011;12356;49.386;8.688;2023-05-14T01:25:29;4.43;;;3.90;;
24216;SDS011;12356;49.386;8.688;2023-05-14T01:31:02;6.28;;;3.80;;
24216;SDS011;12356;49.386;8.688;2023-05-14T01:33:38;5.05;;;4.20;;
24216;SDS011;12356;49.386;8.688;2023-05-14T01:36:11;3.90;;;3.50;;
24216;SDS011;12356;49.386;8.688;2023-05-14T01:38:42;5.32;;;3.85;;
24216;SDS011;12356;49.386;8.688;2023-05-14T01:41:14;5.30;;;3.45;;
24216;SDS011;12356;49.386;8.688;2023-05-14T01:43:47;3.60;;;3.30;;
24216;SDS011;12356;49.386;8.688;2023-05-14T01:46:18;4.90;;;3.63;;
24216;SDS011;12356;49.386;8.688;2023-05-14T01:48:48;3.78;;;3.30;;
24216;SDS011;12356;49.386;8.688;2023-05-14T01:51:19;4.35;;;3.40;;
24216;SDS011;12356;49.386;8.688;2023-05-14T01:53:50;4.88;;;3.30;;
24216;SDS011;12356;49.386;8.688;2023-05-14T01:56:21;4.32;;;3.38;;
24216;SDS011;12356;49.386;8.688;2023-05-14T01:58:52;4.13;;;3.53;;
24216;SDS011;12356;49.386;8.688;2023-05-14T02:01:24;4.63;;;3.80;;
24216;SDS011;12356;49.386;8.688;2023-05-14T02:03:55;4.03;;;3.63;;
24216;SDS011;12356;49.386;8.688;2023-05-14T02:06:26;3.97;;;3.58;;
24216;SDS011;12356;49.386;8.688;2023-05-14T02:08:56;4.25;;;3.70;;
24216;SDS011;12356;49.386;8.688;2023-05-14T02:11:27;5.68;;;3.83;;
24216;SDS011;12356;49.386;8.688;2023-05-14T02:13:57;6.57;;;3.72;;
24216;SDS011;12356;49.386;8.688;2023-05-14T02:16:28;5.13;;;3.90;;
24216;SDS011;12356;49.386;8.688;2023-05-14T02:18:58;4.60;;;4.20;;
24216;SDS011;12356;49.386;8.688;2023-05-14T02:21:29;4.55;;;3.75;;
24216;SDS011;12356;49.386;8.688;2023-05-14T02:23:59;6.47;;;4.72;;
24216;SDS011;12356;49.386;8.688;2023-05-14T02:26:30;6.63;;;5.25;;
24216;SDS011;12356;49.386;8.688;2023-05-14T02:29:00;7.55;;;5.60;;
24216;SDS011;12356;49.386;8.688;2023-05-14T02:31:31;7.43;;;5.97;;
24216;SDS011;12356;49.386;8.688;2023-05-14T02:34:02;7.03;;;5.60;;
24216;SDS011;12356;49.386;8.688;2023-05-14T02:36:33;8.07;;;5.68;;
24216;SDS011;12356;49.386;8.688;2023-05-14T02:39:04;8.20;;;5.80;;
24216;SDS011;12356;49.386;8.688;2023-05-14T02:41:34;6.95;;;5.28;;
24216;SDS011;12356;49.386;8.688;2023-05-14T02:44:05;7.00;;;5.35;;
24216;SDS011;12356;49.386;8.688;2023-05-14T02:46:35;7.57;;;5.95;;
24216;SDS011;12356;49.386;8.688;2023-05-14T02:49:06;7.10;;;5.95;;
24216;SDS011;12356;49.386;8.688;2023-05-14T02:51:36;9.23;;;5.60;;
24216;SDS011;12356;49.386;8.688;2023-05-14T02:54:07;7.22;;;5.50;;
24216;SDS011;12356;49.386;8.688;2023-05-14T02:56:37;7.95;;;5.70;;
24216;SDS011;12356;49.386;8.688;2023-05-14T02:59:08;7.32;;;5.45;;
24216;SDS011;12356;49.386;8.688;2023-05-14T03:01:39;6.63;;;5.40;;
24216;SDS011;12356;49.386;8.688;2023-05-14T03:04:09;7.05;;;6.10;;
24216;SDS011;12356;49.386;8.688;2023-05-14T03:06:40;6.80;;;5.78;;
24216;SDS011;12356;49.386;8.688;2023-05-14T03:09:10;8.40;;;5.55;;
24216;SDS011;12356;49.386;8.688;2023-05-14T03:11:41;7.63;;;5.10;;
24216;SDS011;12356;49.386;8.688;2023-05-14T03:14:11;9.55;;;5.82;;
24216;SDS011;12356;49.386;8.688;2023-05-14T03:16:42;8.07;;;5.38;;
24216;SDS011;12356;49.386;8.688;2023-05-14T03:19:12;6.53;;;5.28;;
24216;SDS011;12356;49.386;8.688;2023-05-14T03:21:43;8.25;;;5.20;;
24216;SDS011;12356;49.386;8.688;2023-05-14T03:24:13;9.05;;;5.30;;
24216;SDS011;12356;49.386;8.688;2023-05-14T03:26:44;7.50;;;5.28;;
24216;SDS011;12356;49.386;8.688;2023-05-14T03:29:14;6.22;;;5.50;;
24216;SDS011;12356;49.386;8.688;2023-05-14T03:31:47;6.40;;;5.45;;
24216;SDS011;12356;49.386;8.688;2023-05-14T03:34:18;6.18;;;5.40;;
24216;SDS011;12356;49.386;8.688;2023-05-14T03:36:49;6.22;;;5.43;;
24216;SDS011;12356;49.386;8.688;2023-05-14T03:39:20;7.60;;;5.95;;
24216;SDS011;12356;49.386;8.688;2023-05-14T03:41:50;6.32;;;5.50;;
24216;SDS011;12356;49.386;8.688;2023-05-14T03:44:21;7.13;;;5.30;;
24216;SDS011;12356;49.386;8.688;2023-05-14T03:46:51;7.05;;;5.40;;
24216;SDS011;12356;49.386;8.688;2023-05-14T03:49:22;7.60;;;5.68;;
24216;SDS011;12356;49.386;8.688;2023-05-14T03:51:52;7.85;;;5.55;;
24216;SDS011;12356;49.386;8.688;2023-05-14T03:54:23;6.80;;;5.50;;
24216;SDS011;12356;49.386;8.688;2023-05-14T03:56:55;7.43;;;5.93;;
24216;SDS011;12356;49.386;8.688;2023-05-14T03:59:25;9.18;;;5.40;;
24216;SDS011;12356;49.386;8.688;2023-05-14T04:01:56;8.68;;;5.70;;
24216;SDS011;12356;49.386;8.688;2023-05-14T04:04:26;7.70;;;5.47;;
24216;SDS011;12356;49.386;8.688;2023-05-14T04:06:57;6.85;;;5.68;;
24216;SDS011;12356;49.386;8.688;2023-05-14T04:09:27;7.10;;;6.03;;
24216;SDS011;12356;49.386;8.688;2023-05-14T04:11:58;7.40;;;5.70;;
24216;SDS011;12356;49.386;8.688;2023-05-14T04:14:28;7.22;;;5.78;;
24216;SDS011;12356;49.386;8.688;2023-05-14T04:16:59;8.75;;;5.57;;
24216;SDS011;12356;49.386;8.688;2023-05-14T04:19:29;6.95;;;5.70;;
24216;SDS011;12356;49.386;8.688;2023-05-14T04:22:00;6.47;;;5.72;;
24216;SDS011;12356;49.386;8.688;2023-05-14T04:24:31;7.35;;;5.68;;
24216;SDS011;12356;49.386;8.688;2023-05-14T04:27:01;6.75;;;5.72;;
24216;SDS011;12356;49.386;8.688;2023-05-14T04:29:32;6.20;;;5.45;;
24216;SDS011;12356;49.386;8.688;2023-05-14T04:32:02;8.75;;;5.80;;
24216;SDS011;12356;49.386;8.688;2023-05-14T04:34:33;7.70;;;6.20;;
24216;SDS011;12356;49.386;8.688;2023-05-14T04:37:04;8.75;;;6.30;;
24216;SDS011;12356;49.386;8.688;2023-05-14T04:39:34;7.18;;;5.55;;
24216;SDS011;12356;49.386;8.688;2023-05-14T04:42:05;6.90;;;5.70;;
24216;SDS011;12356;49.386;8.688;2023-05-14T04:44:35;8.15;;;5.72;;
24216;SDS011;12356;49.386;8.688;2023-05-14T04:47:06;7.78;;;5.75;;
24216;SDS011;12356;49.386;8.688;2023-05-14T04:49:37;7.38;;;5.70;;
24216;SDS011;12356;49.386;8.688;2023-05-14T04:52:07;9.05;;;6.05;;
24216;SDS011;12356;49.386;8.688;2023-05-14T04:54:38;7.40;;;5.68;;
24216;SDS011;12356;49.386;8.688;2023-05-14T04:57:08;7.43;;;5.38;;
24216;SDS011;12356;49.386;8.688;2023-05-14T04:59:39;7.35;;;5.88;;
24216;SDS011;12356;49.386;8.688;2023-05-14T05:02:10;7.53;;;5.65;;
24216;SDS011;12356;49.386;8.688;2023-05-14T05:04:40;7.03;;;6.05;;
24216;SDS011;12356;49.386;8.688;2023-05-14T05:07:11;7.85;;;5.55;;
24216;SDS011;12356;49.386;8.688;2023-05-14T05:09:42;6.95;;;5.45;;
24216;SDS011;12356;49.386;8.688;2023-05-14T05:12:13;8.93;;;5.43;;
24216;SDS011;12356;49.386;8.688;2023-05-14T05:14:43;7.10;;;5.63;;
24216;SDS011;12356;49.386;8.688;2023-05-14T05:17:14;7.18;;;5.57;;
24216;SDS011;12356;49.386;8.688;2023-05-14T05:19:44;7.60;;;5.65;;
24216;SDS011;12356;49.386;8.688;2023-05-14T05:22:15;6.65;;;5.68;;
24216;SDS011;12356;49.386;8.688;2023-05-14T05:24:46;6.55;;;5.50;;
24216;SDS011;12356;49.386;8.688;2023-05-14T05:27:16;7.20;;;5.85;;
24216;SDS011;12356;49.386;8.688;2023-05-14T05:29:47;6.40;;;5.65;;
24216;SDS011;12356;49.386;8.688;2023-05-14T05:32:17;10.48;;;5.65;;
24216;SDS011;12356;49.386;8.688;2023-05-14T05:34:48;7.38;;;5.47;;
24216;SDS011;12356;49.386;8.688;2023-05-14T05:37:20;6.28;;;5.07;;
24216;SDS011;12356;49.386;8.688;2023-05-14T05:39:51;8.48;;;5.70;;
24216;SDS011;12356;49.386;8.688;2023-05-14T05:42:23;7.63;;;5.47;;
24216;SDS011;12356;49.386;8.688;2023-05-14T05:44:53;6.53;;;5.65;;
24216;SDS011;12356;49.386;8.688;2023-05-14T05:47:24;6.50;;;5.35;;
24216;SDS011;12356;49.386;8.688;2023-05-14T05:49:54;6.35;;;5.38;;
24216;SDS011;12356;49.386;8.688;2023-05-14T05:52:25;6.80;;;5.40;;
24216;SDS011;12356;49.386;8.688;2023-05-14T05:54:56;6.22;;;5.15;;
24216;SDS011;12356;49.386;8.688;2023-05-14T05:57:26;7.97;;;5.40;;
24216;SDS011;12356;49.386;8.688;2023-05-14T05:59:57;6.75;;;5.13;;
24216;SDS011;12356;49.386;8.688;2023-05-14T06:02:27;6.20;;;5.47;;
24216;SDS011;12356;49.386;8.688;2023-05-14T06:04:58;7.00;;;5.60;;
24216;SDS011;12356;49.386;8.688;2023-05-14T06:07:28;6.80;;;5.57;;
24216;SDS011;12356;49.386;8.688;2023-05-14T06:09:59;6.97;;;5.13;;
24216;SDS011;12356;49.386;8.688;2023-05-14T06:12:29;7.05;;;5.32;;
24216;SDS011;12356;49.386;8.688;2023-05-14T06:15:00;6.30;;;5.20;;
24216;SDS011;12356;49.386;8.688;2023-05-14T06:17:30;6.68;;;5.10;;
24216;SDS011;12356;49.386;8.688;2023-05-14T06:20:01;6.70;;;5.30;;
24216;SDS011;12356;49.386;8.688;2023-05-14T06:22:32;5.70;;;5.00;;
24216;SDS011;12356;49.386;8.688;2023-05-14T06:25:07;6.57;;;5.10;;
24216;SDS011;12356;49.386;8.688;2023-05-14T06:27:38;5.60;;;5.00;;
24216;SDS011;12356;49.386;8.688;2023-05-14T06:30:09;6.18;;;4.85;;
24216;SDS011;12356;49.386;8.688;2023-05-14T06:32:40;5.68;;;4.82;;
24216;SDS011;12356;49.386;8.688;2023-05-14T06:35:11;5.95;;;5.10;;
24216;SDS011;12356;49.386;8.688;2023-05-14T06:37:41;6.10;;;4.85;;
24216;SDS011;12356;49.386;8.688;2023-05-14T06:40:12;5.68;;;5.07;;
24216;SDS011;12356;49.386;8.688;2023-05-14T06:45:15;5.25;;;4.47;;
24216;SDS011;12356;49.386;8.688;2023-05-14T06:47:45;5.45;;;4.90;;
24216;SDS011;12356;49.386;8.688;2023-05-14T06:50:16;5.95;;;4.88;;
24216;SDS011;12356;49.386;8.688;2023-05-14T06:52:47;6.72;;;4.93;;
24216;SDS011;12356;49.386;8.688;2023-05-14T06:55:17;5.22;;;4.72;;
24216;SDS011;12356;49.386;8.688;2023-05-14T06:57:48;5.90;;;5.03;;
24216;SDS011;12356;49.386;8.688;2023-05-14T07:00:19;5.93;;;4.85;;
24216;SDS011;12356;49.386;8.688;2023-05-14T07:02:50;7.43;;;5.22;;
24216;SDS011;12356;49.386;8.688;2023-05-14T07:05:21;7.53;;;5.15;;
24216;SDS011;12356;49.386;8.688;2023-05-14T07:07:52;6.63;;;5.15;;
24216;SDS011;12356;49.386;8.688;2023-05-14T07:10:22;8.13;;;5.18;;
24216;SDS011;12356;49.386;8.688;2023-05-14T07:12:53;7.10;;;5.68;;
24216;SDS011;12356;49.386;8.688;2023-05-14T07:15:24;8.75;;;6.43;;
24216;SDS011;12356;49.386;8.688;2023-05-14T07:17:54;8.02;;;6.72;;
24216;SDS011;12356;49.386;8.688;2023-05-14T07:20:25;7.95;;;6.03;;
24216;SDS011;12356;49.386;8.688;2023-05-14T07:22:55;8.75;;;5.70;;
24216;SDS011;12356;49.386;8.688;2023-05-14T07:25:26;5.95;;;5.35;;
24216;SDS011;12356;49.386;8.688;2023-05-14T07:27:57;8.57;;;6.03;;
24216;SDS011;12356;49.386;8.688;2023-05-14T07:30:27;9.55;;;6.95;;
24216;SDS011;12356;49.386;8.688;2023-05-14T07:32:58;9.07;;;6.55;;
24216;SDS011;12356;49.386;8.688;2023-05-14T07:35:28;9.13;;;6.10;;
24216;SDS011;12356;49.386;8.688;2023-05-14T07:37:59;7.85;;;5.85;;
24216;SDS011;12356;49.386;8.688;2023-05-14T07:40:30;8.30;;;6.05;;
24216;SDS011;12356;49.386;8.688;2023-05-14T07:43:00;7.15;;;5.95;;
24216;SDS011;12356;49.386;8.688;2023-05-14T07:45:31;6.18;;;5.57;;
24216;SDS011;12356;49.386;8.688;2023-05-14T07:48:02;6.40;;;5.50;;
24216;SDS011;12356;49.386;8.688;2023-05-14T07:50:32;5.60;;;5.00;;
24216;SDS011;12356;49.386;8.688;2023-05-14T07:53:03;7.97;;;5.82;;
24216;SDS011;12356;49.386;8.688;2023-05-14T07:55:33;6.80;;;5.32;;
24216;SDS011;12356;49.386;8.688;2023-05-14T07:58:04;6.40;;;5.45;;
24216;SDS011;12356;49.386;8.688;2023-05-14T08:00:35;8.43;;;6.35;;
24216;SDS011;12356;49.386;8.688;2023-05-14T08:03:06;6.90;;;6.20;;
24216;SDS011;12356;49.386;8.688;2023-05-14T08:05:36;8.88;;;7.40;;
24216;SDS011;12356;49.386;8.688;2023-05-14T08:08:07;10.57;;;7.30;;
24216;SDS011;12356;49.386;8.688;2023-05-14T08:10:37;8.07;;;6.53;;
24216;SDS011;12356;49.386;8.688;2023-05-14T08:13:08;8.30;;;6.47;;
24216;SDS011;12356;49.386;8.688;2023-05-14T08:15:38;6.72;;;5.40;;
24216;SDS011;12356;49.386;8.688;2023-05-14T08:18:09;7.72;;;5.70;;
24216;SDS011;12356;49.386;8.688;2023-05-14T08:20:40;7.43;;;5.60;;
24216;SDS011;12356;49.386;8.688;2023-05-14T08:23:10;6.68;;;5.22;;
24216;SDS011;12356;49.386;8.688;2023-05-14T08:25:41;9.23;;;6.05;;
24216;SDS011;12356;49.386;8.688;2023-05-14T08:28:12;8.38;;;5.95;;
24216;SDS011;12356;49.386;8.688;2023-05-14T08:30:42;7.53;;;5.70;;
24216;SDS011;12356;49.386;8.688;2023-05-14T08:33:13;9.50;;;5.90;;
24216;SDS011;12356;49.386;8.688;2023-05-14T08:35:43;6.47;;;5.53;;
24216;SDS011;12356;49.386;8.688;2023-05-14T08:38:14;7.47;;;6.20;;
24216;SDS011;12356;49.386;8.688;2023-05-14T08:40:48;8.90;;;6.97;;
24216;SDS011;12356;49.386;8.688;2023-05-14T08:43:26;9.52;;;6.57;;
24216;SDS011;12356;49.386;8.688;2023-05-14T08:46:04;11.65;;;6.30;;
24216;SDS011;12356;49.386;8.688;2023-05-14T08:48:35;8.23;;;6.00;;
24216;SDS011;12356;49.386;8.688;2023-05-14T08:51:06;6.90;;;5.70;;
24216;SDS011;12356;49.386;8.688;2023-05-14T08:53:37;6.60;;;5.90;;
24216;SDS011;12356;49.386;8.688;2023-05-14T08:56:09;7.32;;;5.75;;
24216;SDS011;12356;49.386;8.688;2023-05-14T08:58:41;6.43;;;5.80;;
24216;SDS011;12356;49.386;8.688;2023-05-14T09:01:12;7.45;;;6.10;;
24216;SDS011;12356;49.386;8.688;2023-05-14T09:03:42;7.22;;;6.03;;
24216;SDS011;12356;49.386;8.688;2023-05-14T09:06:14;8.18;;;6.10;;
24216;SDS011;12356;49.386;8.688;2023-05-14T09:08:45;5.85;;;5.18;;
24216;SDS011;12356;49.386;8.688;2023-05-14T09:11:15;6.03;;;5.28;;
24216;SDS011;12356;49.386;8.688;2023-05-14T09:13:46;6.22;;;5.03;;
24216;SDS011;12356;49.386;8.688;2023-05-14T09:16:16;6.35;;;4.85;;
24216;SDS011;12356;49.386;8.688;2023-05-14T09:18:47;7.00;;;5.32;;
24216;SDS011;12356;49.386;8.688;2023-05-14T09:21:19;7.38;;;5.03;;
24216;SDS011;12356;49.386;8.688;2023-05-14T09:23:52;5.93;;;5.05;;
24216;SDS011;12356;49.386;8.688;2023-05-14T09:26:25;7.93;;;5.10;;
24216;SDS011;12356;49.386;8.688;2023-05-14T09:28:58;7.30;;;5.55;;
24216;SDS011;12356;49.386;8.688;2023-05-14T09:31:33;7.38;;;5.60;;
24216;SDS011;12356;49.386;8.688;2023-05-14T09:34:04;6.05;;;5.43;;
24216;SDS011;12356;49.386;8.688;2023-05-14T09:36:34;8.63;;;5.22;;
24216;SDS011;12356;49.386;8.688;2023-05-14T09:39:05;8.07;;;5.72;;
24216;SDS011;12356;49.386;8.688;2023-05-14T09:41:35;6.43;;;5.57;;
24216;SDS011;12356;49.386;8.688;2023-05-14T09:44:06;6.35;;;5.55;;
24216;SDS011;12356;49.386;8.688;2023-05-14T09:46:37;5.93;;;5.32;;
24216;SDS011;12356;49.386;8.688;2023-05-14T09:49:07;6.45;;;4.90;;
24216;SDS011;12356;49.386;8.688;2023-05-14T09:51:38;9.85;;;5.70;;
24216;SDS011;12356;49.386;8.688;2023-05-14T09:54:08;6.00;;;5.18;;
24216;SDS011;12356;49.386;8.688;2023-05-14T09:56:40;7.25;;;5.50;;
24216;SDS011;12356;49.386;8.688;2023-05-14T10:01:42;6.80;;;4.78;;
24216;SDS011;12356;49.386;8.688;2023-05-14T10:04:13;5.47;;;4.85;;
24216;SDS011;12356;49.386;8.688;2023-05-14T10:06:44;6.03;;;5.18;;
24216;SDS011;12356;49.386;8.688;2023-05-14T10:09:18;6.93;;;5.50;;
24216;SDS011;12356;49.386;8.688;2023-05-14T10:11:52;6.07;;;4.97;;
24216;SDS011;12356;49.386;8.688;2023-05-14T10:14:32;5.80;;;5.20;;
24216;SDS011;12356;49.386;8.688;2023-05-14T10:17:09;5.10;;;4.60;;
24216;SDS011;12356;49.386;8.688;2023-05-14T10:19:51;8.00;;;5.07;;
24216;SDS011;12356;49.386;8.688;2023-05-14T10:22:25;6.80;;;4.90;;
24216;SDS011;12356;49.386;8.688;2023-05-14T10:24:59;5.82;;;4.68;;
24216;SDS011;12356;49.386;8.688;2023-05-14T10:27:30;6.40;;;4.93;;
24216;SDS011;12356;49.386;8.688;2023-05-14T10:30:04;5.72;;;5.00;;
24216;SDS011;12356;49.386;8.688;2023-05-14T10:32:39;5.28;;;4.78;;
24216;SDS011;12356;49.386;8.688;2023-05-14T10:35:14;5.63;;;5.07;;
24216;SDS011;12356;49.386;8.688;2023-05-14T10:37:49;5.43;;;4.82;;
24216;SDS011;12356;49.386;8.688;2023-05-14T10:40:20;5.43;;;4.85;;
24216;SDS011;12356;49.386;8.688;2023-05-14T10:45:24;5.30;;;4.80;;
24216;SDS011;12356;49.386;8.688;2023-05-14T10:47:56;6.55;;;4.78;;
24216;SDS011;12356;49.386;8.688;2023-05-14T10:50:26;5.32;;;4.82;;
24216;SDS011;12356;49.386;8.688;2023-05-14T10:52:58;5.32;;;4.82;;
24216;SDS011;12356;49.386;8.688;2023-05-14T10:55:30;6.32;;;5.13;;
24216;SDS011;12356;49.386;8.688;2023-05-14T10:58:02;5.88;;;4.53;;
24216;SDS011;12356;49.386;8.688;2023-05-14T11:00:33;4.97;;;4.47;;
24216;SDS011;12356;49.386;8.688;2023-05-14T11:03:05;5.47;;;4.50;;
24216;SDS011;12356;49.386;8.688;2023-05-14T11:05:36;6.47;;;4.60;;
24216;SDS011;12356;49.386;8.688;2023-05-14T11:08:09;9.05;;;4.70;;
24216;SDS011;12356;49.386;8.688;2023-05-14T11:10:41;6.20;;;4.82;;
24216;SDS011;12356;49.386;8.688;2023-05-14T11:13:12;5.45;;;4.13;;
24216;SDS011;12356;49.386;8.688;2023-05-14T11:15:45;5.32;;;4.68;;
24216;SDS011;12356;49.386;8.688;2023-05-14T11:18:25;5.78;;;4.10;;
24216;SDS011;12356;49.386;8.688;2023-05-14T11:20:59;5.35;;;4.50;;
24216;SDS011;12356;49.386;8.688;2023-05-14T11:23:30;6.00;;;5.05;;
24216;SDS011;12356;49.386;8.688;2023-05-14T11:26:01;5.75;;;4.53;;
24216;SDS011;12356;49.386;8.688;2023-05-14T11:28:32;4.90;;;4.40;;
24216;SDS011;12356;49.386;8.688;2023-05-14T11:31:03;6.05;;;4.72;;
24216;SDS011;12356;49.386;8.688;2023-05-14T11:33:34;4.55;;;4.15;;
24216;SDS011;12356;49.386;8.688;2023-05-14T11:36:05;5.60;;;4.28;;
24216;SDS011;12356;49.386;8.688;2023-05-14T11:38:44;4.97;;;4.53;;
24216;SDS011;12356;49.386;8.688;2023-05-14T11:41:20;5.68;;;4.30;;
24216;SDS011;12356;49.386;8.688;2023-05-14T11:43:51;5.88;;;4.30;;
24216;SDS011;12356;49.386;8.688;2023-05-14T11:46:22;5.00;;;4.50;;
24216;SDS011;12356;49.386;8.688;2023-05-14T11:48:54;7.00;;;4.32;;
24216;SDS011;12356;49.386;8.688;2023-05-14T11:51:25;5.28;;;4.55;;
24216;SDS011;12356;49.386;8.688;2023-05-14T11:53:55;4.80;;;4.30;;
24216;SDS011;12356;49.386;8.688;2023-05-14T11:56:27;4.70;;;4.15;;
24216;SDS011;12356;49.386;8.688;2023-05-14T11:58:58;5.18;;;4.20;;
24216;SDS011;12356;49.386;8.688;2023-05-14T12:01:28;5.50;;;4.35;;
24216;SDS011;12356;49.386;8.688;2023-05-14T12:04:05;4.80;;;4.30;;
24216;SDS011;12356;49.386;8.688;2023-05-14T12:06:37;8.65;;;4.40;;
24216;SDS011;12356;49.386;8.688;2023-05-14T12:09:08;4.70;;;4.20;;
24216;SDS011;12356;49.386;8.688;2023-05-14T12:11:41;4.93;;;4.43;;
24216;SDS011;12356;49.386;8.688;2023-05-14T12:14:16;6.25;;;4.15;;
24216;SDS011;12356;49.386;8.688;2023-05-14T12:16:48;5.40;;;4.45;;
24216;SDS011;12356;49.386;8.688;2023-05-14T12:19:19;5.00;;;4.20;;
24216;SDS011;12356;49.386;8.688;2023-05-14T12:21:52;4.50;;;4.10;;
24216;SDS011;12356;49.386;8.688;2023-05-14T12:24:24;4.55;;;4.00;;
24216;SDS011;12356;49.386;8.688;2023-05-14T12:26:54;4.43;;;4.03;;
24216;SDS011;12356;49.386;8.688;2023-05-14T12:29:26;4.57;;;3.93;;
24216;SDS011;12356;49.386;8.688;2023-05-14T12:31:57;5.63;;;4.10;;
24216;SDS011;12356;49.386;8.688;2023-05-14T12:34:28;5.40;;;4.20;;
24216;SDS011;12356;49.386;8.688;2023-05-14T12:36:58;4.80;;;4.30;;
24216;SDS011;12356;49.386;8.688;2023-05-14T12:39:31;4.82;;;4.03;;
24216;SDS011;12356;49.386;8.688;2023-05-14T12:42:02;5.30;;;4.28;;
24216;SDS011;12356;49.386;8.688;2023-05-14T12:44:33;4.30;;;3.90;;
24216;SDS011;12356;49.386;8.688;2023-05-14T12:47:03;5.07;;;4.10;;
24216;SDS011;12356;49.386;8.688;2023-05-14T12:49:34;5.55;;;3.75;;
24216;SDS011;12356;49.386;8.688;2023-05-14T12:52:05;5.15;;;3.83;;
24216;SDS011;12356;49.386;8.688;2023-05-14T12:54:35;4.63;;;4.07;;
24216;SDS011;12356;49.386;8.688;2023-05-14T12:57:09;5.90;;;3.92;;
24216;SDS011;12356;49.386;8.688;2023-05-14T12:59:39;5.25;;;3.95;;
24216;SDS011;12356;49.386;8.688;2023-05-14T13:02:10;4.82;;;4.25;;
24216;SDS011;12356;49.386;8.688;2023-05-14T13:04:40;4.32;;;3.92;;
24216;SDS011;12356;49.386;8.688;2023-05-14T13:07:11;5.22;;;4.00;;
24216;SDS011;12356;49.386;8.688;2023-05-14T13:09:42;4.72;;;4.22;;
24216;SDS011;12356;49.386;8.688;2023-05-14T13:12:13;5.35;;;4.10;;
24216;SDS011;12356;49.386;8.688;2023-05-14T13:14:43;7.45;;;4.20;;
24216;SDS011;12356;49.386;8.688;2023-05-14T13:17:14;4.82;;;4.10;;
24216;SDS011;12356;49.386;8.688;2023-05-14T13:19:44;7.82;;;4.65;;
24216;SDS011;12356;49.386;8.688;2023-05-14T13:22:15;6.10;;;4.65;;
24216;SDS011;12356;49.386;8.688;2023-05-14T13:27:18;5.07;;;4.53;;
24216;SDS011;12356;49.386;8.688;2023-05-14T13:29:48;4.90;;;4.18;;
24216;SDS011;12356;49.386;8.688;2023-05-14T13:32:19;4.72;;;4.10;;
24216;SDS011;12356;49.386;8.688;2023-05-14T13:34:49;5.43;;;4.68;;
24216;SDS011;12356;49.386;8.688;2023-05-14T13:37:20;4.38;;;3.97;;
24216;SDS011;12356;49.386;8.688;2023-05-14T13:39:50;4.80;;;4.30;;
24216;SDS011;12356;49.386;8.688;2023-05-14T13:42:21;4.68;;;4.20;;
24216;SDS011;12356;49.386;8.688;2023-05-14T13:44:52;4.50;;;3.92;;
24216;SDS011;12356;49.386;8.688;2023-05-14T13:47:23;4.75;;;4.25;;
24216;SDS011;12356;49.386;8.688;2023-05-14T13:49:54;5.20;;;4.13;;
24216;SDS011;12356;49.386;8.688;2023-05-14T13:52:25;4.40;;;4.00;;
24216;SDS011;12356;49.386;8.688;2023-05-14T13:54:56;4.60;;;4.07;;
24216;SDS011;12356;49.386;8.688;2023-05-14T13:57:26;4.70;;;4.20;;
24216;SDS011;12356;49.386;8.688;2023-05-14T13:59:57;4.40;;;4.00;;
24216;SDS011;12356;49.386;8.688;2023-05-14T14:02:27;4.95;;;3.92;;
24216;SDS011;12356;49.386;8.688;2023-05-14T14:04:58;4.50;;;4.10;;
24216;SDS011;12356;49.386;8.688;2023-05-14T14:07:28;5.03;;;3.70;;
24216;SDS011;12356;49.386;8.688;2023-05-14T14:09:59;4.40;;;3.63;;
24216;SDS011;12356;49.386;8.688;2023-05-14T14:12:31;5.05;;;4.00;;
24216;SDS011;12356;49.386;8.688;2023-05-14T14:15:01;4.60;;;3.70;;
24216;SDS011;12356;49.386;8.688;2023-05-14T14:17:33;3.70;;;3.30;;
24216;SDS011;12356;49.386;8.688;2023-05-14T14:20:04;4.25;;;3.70;;
24216;SDS011;12356;49.386;8.688;2023-05-14T14:22:35;4.47;;;3.97;;
24216;SDS011;12356;49.386;8.688;2023-05-14T14:25:06;4.85;;;3.95;;
24216;SDS011;12356;49.386;8.688;2023-05-14T14:27:38;5.35;;;3.95;;
24216;SDS011;12356;49.386;8.688;2023-05-14T14:30:09;4.45;;;4.05;;
24216;SDS011;12356;49.386;8.688;2023-05-14T14:32:48;4.65;;;3.60;;
24216;SDS011;12356;49.386;8.688;2023-05-14T14:35:19;4.93;;;3.97;;
24216;SDS011;12356;49.386;8.688;2023-05-14T14:37:49;5.18;;;3.92;;
24216;SDS011;12356;49.386;8.688;2023-05-14T14:40:22;4.40;;;4.00;;
24216;SDS011;12356;49.386;8.688;2023-05-14T14:42:53;4.30;;;3.90;;
24216;SDS011;12356;49.386;8.688;2023-05-14T14:45:23;6.05;;;3.80;;
24216;SDS011;12356;49.386;8.688;2023-05-14T14:48:20;4.72;;;3.80;;
24216;SDS011;12356;49.386;8.688;2023-05-14T14:50:55;5.63;;;4.03;;
24216;SDS011;12356;49.386;8.688;2023-05-14T14:53:26;4.00;;;3.60;;
24216;SDS011;12356;49.386;8.688;2023-05-14T14:55:56;4.50;;;3.80;;
24216;SDS011;12356;49.386;8.688;2023-05-14T14:58:27;3.92;;;3.63;;
24216;SDS011;12356;49.386;8.688;2023-05-14T15:00:58;3.97;;;3.58;;
24216;SDS011;12356;49.386;8.688;2023-05-14T15:03:30;5.50;;;3.60;;
24216;SDS011;12356;49.386;8.688;2023-05-14T15:06:00;4.32;;;3.60;;
24216;SDS011;12356;49.386;8.688;2023-05-14T15:08:31;4.38;;;3.65;;
24216;SDS011;12356;49.386;8.688;2023-05-14T15:11:01;3.67;;;3.30;;
24216;SDS011;12356;49.386;8.688;2023-05-14T15:13:32;5.88;;;3.40;;
24216;SDS011;12356;49.386;8.688;2023-05-14T15:16:02;3.70;;;3.40;;
24216;SDS011;12356;49.386;8.688;2023-05-14T15:18:33;6.25;;;3.20;;
24216;SDS011;12356;49.386;8.688;2023-05-14T15:21:03;5.95;;;3.30;;
24216;SDS011;12356;49.386;8.688;2023-05-14T15:23:34;4.43;;;3.30;;
24216;SDS011;12356;49.386;8.688;2023-05-14T15:26:05;6.22;;;3.70;;
24216;SDS011;12356;49.386;8.688;2023-05-14T15:28:35;4.22;;;3.33;;
24216;SDS011;12356;49.386;8.688;2023-05-14T15:31:06;3.50;;;3.20;;